Time,TemperatureF,DewpointF,PressureIn,WindDirection,WindDirectionDegrees,WindSpeedMPH,WindSpeedGustMPH,Humidity,HourlyPrecipIn,Conditions,Clouds,dailyrainin,SoftwareType,DateUTC
2013-04-15 00:00:00,41.0,26.0,30.29,ENE,67,4.0,10.0,55,0.00,,,0.00,Weather View 32 v70,2013-04-15 04:00:00,
2013-04-15 00:05:00,41.0,25.6,30.29,NNE,22,5.0,10.0,54,0.00,,,0.00,Weather View 32 v70,2013-04-15 04:05:00,
2013-04-15 00:10:00,41.0,25.6,30.30,North,360,3.0,10.0,54,0.00,,,0.00,Weather View 32 v70,2013-04-15 04:10:00,
2013-04-15 00:15:00,41.0,25.2,30.30,ENE,67,3.0,10.0,53,0.00,,,0.00,Weather View 32 v70,2013-04-15 04:15:00,
2013-04-15 00:20:00,41.0,25.2,30.30,North,360,5.0,10.0,53,0.00,,,0.00,Weather View 32 v70,2013-04-15 04:20:00,
2013-04-15 00:25:00,40.0,24.7,30.30,North,360,3.0,10.0,54,0.00,,,0.00,Weather View 32 v70,2013-04-15 04:25:00,
2013-04-15 00:30:00,40.0,24.7,30.31,NE,45,3.0,10.0,54,0.00,,,0.00,Weather View 32 v70,2013-04-15 04:30:00,
2013-04-15 00:36:00,41.0,24.2,30.30,ENE,67,6.0,10.0,51,0.00,,,0.00,Weather View 32 v70,2013-04-15 04:36:00,
2013-04-15 00:41:00,41.0,24.7,30.30,NE,45,2.0,10.0,52,0.00,,,0.00,Weather View 32 v70,2013-04-15 04:41:00,
2013-04-15 00:46:00,41.0,24.7,30.30,North,360,1.0,10.0,52,0.00,,,0.00,Weather View 32 v70,2013-04-15 04:46:00,
2013-04-15 00:51:00,41.0,24.7,30.30,North,360,3.0,10.0,52,0.00,,,0.00,Weather View 32 v70,2013-04-15 04:51:00,
2013-04-15 00:56:00,40.0,23.8,30.31,North,360,1.0,8.0,52,0.00,,,0.00,Weather View 32 v70,2013-04-15 04:56:00,
2013-04-15 01:01:00,40.0,24.7,30.31,North,360,0.0,7.0,54,0.00,,,0.00,Weather View 32 v70,2013-04-15 05:01:00,
2013-04-15 01:07:00,40.0,25.5,30.31,North,360,0.0,7.0,56,0.00,,,0.00,Weather View 32 v70,2013-04-15 05:07:00,
2013-04-15 01:12:00,39.0,25.5,30.31,West,270,2.0,7.0,58,0.00,,,0.00,Weather View 32 v70,2013-04-15 05:12:00,
2013-04-15 01:17:00,39.0,26.3,30.32,West,270,0.0,7.0,60,0.00,,,0.00,Weather View 32 v70,2013-04-15 05:17:00,
2013-04-15 01:22:00,38.0,26.5,30.32,West,270,0.0,7.0,63,0.00,,,0.00,Weather View 32 v70,2013-04-15 05:22:00,
2013-04-15 01:27:00,38.0,27.3,30.32,SW,225,2.0,7.0,65,0.00,,,0.00,Weather View 32 v70,2013-04-15 05:27:00,
2013-04-15 01:32:00,37.0,27.1,30.32,SW,225,2.0,7.0,67,0.00,,,0.00,Weather View 32 v70,2013-04-15 05:32:00,
2013-04-15 01:37:00,37.0,27.8,30.34,SW,225,0.0,7.0,69,0.00,,,0.00,Weather View 32 v70,2013-04-15 05:37:00,
2013-04-15 01:42:00,37.0,27.8,30.34,SW,225,0.0,7.0,69,0.00,,,0.00,Weather View 32 v70,2013-04-15 05:42:00,
2013-04-15 01:47:00,37.0,27.4,30.34,SW,225,0.0,7.0,68,0.00,,,0.00,Weather View 32 v70,2013-04-15 05:47:00,
2013-04-15 01:52:00,37.0,28.1,30.34,SW,225,1.0,5.0,70,0.00,,,0.00,Weather View 32 v70,2013-04-15 05:52:00,
2013-04-15 01:57:00,37.0,27.8,30.33,SW,225,0.0,5.0,69,0.00,,,0.00,Weather View 32 v70,2013-04-15 05:57:00,
2013-04-15 02:02:00,36.0,27.8,30.33,SW,225,0.0,3.0,72,0.00,,,0.00,Weather View 32 v70,2013-04-15 06:02:00,
2013-04-15 02:07:00,36.0,27.5,30.33,SW,225,0.0,3.0,71,0.00,,,0.00,Weather View 32 v70,2013-04-15 06:07:00,
2013-04-15 02:12:00,36.0,28.5,30.33,SW,225,0.0,3.0,74,0.00,,,0.00,Weather View 32 v70,2013-04-15 06:12:00,
2013-04-15 02:17:00,35.0,27.9,30.34,SW,225,0.0,3.0,75,0.00,,,0.00,Weather View 32 v70,2013-04-15 06:17:00,
2013-04-15 02:22:00,35.0,32.1,30.34,SW,225,0.0,3.0,89,0.00,,,0.00,Weather View 32 v70,2013-04-15 06:22:00,
2013-04-15 02:27:00,36.0,31.3,30.33,SW,225,0.0,3.0,83,0.00,,,0.00,Weather View 32 v70,2013-04-15 06:27:00,
2013-04-15 02:32:00,35.0,28.2,30.33,SSE,157,0.0,3.0,76,0.00,,,0.00,Weather View 32 v70,2013-04-15 06:32:00,
2013-04-15 02:37:00,35.0,28.5,30.33,East,90,1.0,3.0,77,0.00,,,0.00,Weather View 32 v70,2013-04-15 06:37:00,
2013-04-15 02:42:00,35.0,27.9,30.33,East,90,1.0,3.0,75,0.00,,,0.00,Weather View 32 v70,2013-04-15 06:42:00,
2013-04-15 02:47:00,35.0,28.5,30.33,East,90,0.0,3.0,77,0.00,,,0.00,Weather View 32 v70,2013-04-15 06:47:00,
2013-04-15 02:52:00,35.0,28.2,30.33,East,90,0.0,3.0,76,0.00,,,0.00,Weather View 32 v70,2013-04-15 06:52:00,
2013-04-15 02:57:00,34.0,28.2,30.34,East,90,0.0,3.0,79,0.00,,,0.00,Weather View 32 v70,2013-04-15 06:57:00,
2013-04-15 03:02:00,34.0,28.8,30.34,East,90,0.0,3.0,81,0.00,,,0.00,Weather View 32 v70,2013-04-15 07:02:00,
2013-04-15 03:41:00,34.0,28.5,30.36,East,90,0.0,1.0,80,0.00,,,0.00,Weather View 32 v70,2013-04-15 07:41:00,
2013-04-15 03:42:00,34.0,28.5,30.36,East,90,0.0,1.0,80,0.00,,,0.00,Weather View 32 v70,2013-04-15 07:42:00,
2013-04-15 03:47:00,34.0,28.8,30.36,East,90,0.0,0.0,81,0.00,,,0.00,Weather View 32 v70,2013-04-15 07:47:00,
2013-04-15 03:48:00,34.0,28.8,30.36,East,90,0.0,0.0,81,0.00,,,0.00,Weather View 32 v70,2013-04-15 07:48:00,
2013-04-15 03:53:00,34.0,28.8,30.36,East,90,0.0,0.0,81,0.00,,,0.00,Weather View 32 v70,2013-04-15 07:53:00,
2013-04-15 03:58:00,35.0,32.9,30.36,East,90,0.0,0.0,92,0.00,,,0.00,Weather View 32 v70,2013-04-15 07:58:00,
2013-04-15 04:03:00,35.0,30.9,30.36,East,90,0.0,0.0,85,0.00,,,0.00,Weather View 32 v70,2013-04-15 08:03:00,
2013-04-15 04:08:00,34.0,28.8,30.36,East,90,0.0,0.0,81,0.00,,,0.00,Weather View 32 v70,2013-04-15 08:08:00,
2013-04-15 04:13:00,34.0,28.8,30.36,East,90,0.0,0.0,81,0.00,,,0.00,Weather View 32 v70,2013-04-15 08:13:00,
2013-04-15 04:19:00,34.0,28.8,30.37,East,90,0.0,0.0,81,0.00,,,0.00,Weather View 32 v70,2013-04-15 08:19:00,
2013-04-15 04:24:00,33.0,28.1,30.37,East,90,0.0,0.0,82,0.00,,,0.00,Weather View 32 v70,2013-04-15 08:24:00,
2013-04-15 04:29:00,33.0,28.4,30.36,NE,45,2.0,0.0,83,0.00,,,0.00,Weather View 32 v70,2013-04-15 08:29:00,
2013-04-15 04:34:00,34.0,29.7,30.36,NE,45,1.0,7.0,84,0.00,,,0.00,Weather View 32 v70,2013-04-15 08:34:00,
2013-04-15 04:35:00,34.0,29.4,30.36,North,360,4.0,7.0,83,0.00,,,0.00,Weather View 32 v70,2013-04-15 08:35:00,
2013-04-15 04:40:00,34.0,29.1,30.36,NNE,22,2.0,7.0,82,0.00,,,0.00,Weather View 32 v70,2013-04-15 08:40:00,
2013-04-15 04:41:00,34.0,28.8,30.36,North,360,2.0,7.0,81,0.00,,,0.00,Weather View 32 v70,2013-04-15 08:41:00,
2013-04-15 04:46:00,34.0,28.8,30.36,North,360,1.0,7.0,81,0.00,,,0.00,Weather View 32 v70,2013-04-15 08:46:00,
2013-04-15 04:51:00,34.0,29.7,30.37,North,360,0.0,7.0,84,0.00,,,0.00,Weather View 32 v70,2013-04-15 08:51:00,
2013-04-15 04:56:00,34.0,28.8,30.38,North,360,0.0,7.0,81,0.00,,,0.00,Weather View 32 v70,2013-04-15 08:56:00,
2013-04-15 05:01:00,34.0,29.1,30.38,North,360,0.0,7.0,82,0.00,,,0.00,Weather View 32 v70,2013-04-15 09:01:00,
2013-04-15 05:06:00,34.0,28.8,30.38,North,360,0.0,7.0,81,0.00,,,0.00,Weather View 32 v70,2013-04-15 09:06:00,
2013-04-15 05:11:00,34.0,28.5,30.39,North,360,0.0,7.0,80,0.00,,,0.00,Weather View 32 v70,2013-04-15 09:11:00,
2013-04-15 05:17:00,34.0,28.2,30.39,North,360,0.0,7.0,79,0.00,,,0.00,Weather View 32 v70,2013-04-15 09:17:00,
2013-04-15 05:22:00,34.0,28.8,30.39,North,360,0.0,7.0,81,0.00,,,0.00,Weather View 32 v70,2013-04-15 09:22:00,
2013-04-15 05:27:00,34.0,28.8,30.40,North,360,0.0,7.0,81,0.00,,,0.00,Weather View 32 v70,2013-04-15 09:27:00,
2013-04-15 05:32:00,34.0,29.1,30.40,North,360,0.0,7.0,82,0.00,,,0.00,Weather View 32 v70,2013-04-15 09:32:00,
2013-04-15 05:37:00,34.0,29.1,30.41,WNW,292,1.0,5.0,82,0.00,,,0.00,Weather View 32 v70,2013-04-15 09:37:00,
2013-04-15 05:42:00,34.0,30.0,30.41,WNW,292,0.0,3.0,85,0.00,,,0.00,Weather View 32 v70,2013-04-15 09:42:00,
2013-04-15 05:47:00,34.0,30.3,30.42,WNW,292,0.0,3.0,86,0.00,,,0.00,Weather View 32 v70,2013-04-15 09:47:00,
2013-04-15 05:52:00,34.0,30.0,30.42,WNW,292,0.0,3.0,85,0.00,,,0.00,Weather View 32 v70,2013-04-15 09:52:00,
2013-04-15 05:57:00,34.0,30.5,30.42,WNW,292,0.0,3.0,87,0.00,,,0.00,Weather View 32 v70,2013-04-15 09:57:00,
2013-04-15 06:02:00,34.0,30.3,30.42,West,270,1.0,3.0,86,0.00,,,0.00,Weather View 32 v70,2013-04-15 10:02:00,
2013-04-15 06:07:00,34.0,30.3,30.43,West,270,2.0,5.0,86,0.00,,,0.00,Weather View 32 v70,2013-04-15 10:07:00,
2013-04-15 06:12:00,34.0,30.0,30.43,West,270,2.0,5.0,85,0.00,,,0.00,Weather View 32 v70,2013-04-15 10:12:00,
2013-04-15 06:17:00,34.0,29.7,30.43,West,270,0.0,5.0,84,0.00,,,0.00,Weather View 32 v70,2013-04-15 10:17:00,
2013-04-15 06:22:00,34.0,30.3,30.43,West,270,0.0,5.0,86,0.00,,,0.00,Weather View 32 v70,2013-04-15 10:22:00,
2013-04-15 06:27:00,34.0,29.4,30.44,West,270,0.0,5.0,83,0.00,,,0.00,Weather View 32 v70,2013-04-15 10:27:00,
2013-04-15 06:32:00,34.0,29.1,30.44,West,270,0.0,5.0,82,0.00,,,0.00,Weather View 32 v70,2013-04-15 10:32:00,
2013-04-15 06:37:00,34.0,28.8,30.44,West,270,0.0,5.0,81,0.00,,,0.00,Weather View 32 v70,2013-04-15 10:37:00,
2013-04-15 06:42:00,34.0,29.7,30.44,West,270,0.0,5.0,84,0.00,,,0.00,Weather View 32 v70,2013-04-15 10:42:00,
2013-04-15 06:47:00,35.0,30.7,30.43,West,270,0.0,5.0,84,0.00,,,0.00,Weather View 32 v70,2013-04-15 10:47:00,
2013-04-15 06:52:00,34.0,29.7,30.43,West,270,0.0,5.0,84,0.00,,,0.00,Weather View 32 v70,2013-04-15 10:52:00,
2013-04-15 06:57:00,35.0,29.8,30.44,West,270,0.0,5.0,81,0.00,,,0.00,Weather View 32 v70,2013-04-15 10:57:00,
2013-04-15 07:02:00,35.0,29.8,30.44,West,270,0.0,5.0,81,0.00,,,0.00,Weather View 32 v70,2013-04-15 11:02:00,
2013-04-15 07:07:00,35.0,29.8,30.45,West,270,0.0,3.0,81,0.00,,,0.00,Weather View 32 v70,2013-04-15 11:07:00,
2013-04-15 07:12:00,35.0,29.1,30.45,West,270,0.0,2.0,79,0.00,,,0.00,Weather View 32 v70,2013-04-15 11:12:00,
2013-04-15 07:17:00,36.0,29.5,30.45,West,270,0.0,1.0,77,0.00,,,0.00,Weather View 32 v70,2013-04-15 11:17:00,
2013-04-15 07:22:00,36.0,29.5,30.45,West,270,0.0,1.0,77,0.00,,,0.00,Weather View 32 v70,2013-04-15 11:22:00,
2013-04-15 07:28:00,37.0,30.1,30.44,West,270,0.0,1.0,76,0.00,,,0.00,Weather View 32 v70,2013-04-15 11:28:00,
2013-04-15 07:33:00,37.0,30.5,30.44,West,270,0.0,1.0,77,0.00,,,0.00,Weather View 32 v70,2013-04-15 11:33:00,
2013-04-15 07:38:00,37.0,29.5,30.44,West,270,0.0,1.0,74,0.00,,,0.00,Weather View 32 v70,2013-04-15 11:38:00,
2013-04-15 07:43:00,38.0,29.1,30.44,NNE,22,2.0,5.0,70,0.00,,,0.00,Weather View 32 v70,2013-04-15 11:43:00,
2013-04-15 07:49:00,38.0,29.1,30.44,NNE,22,1.0,5.0,70,0.00,,,0.00,Weather View 32 v70,2013-04-15 11:49:00,
2013-04-15 07:57:00,39.0,30.0,30.44,NNE,22,1.0,5.0,70,0.00,,,0.00,Weather View 32 v70,2013-04-15 11:57:00,
2013-04-15 08:02:00,39.0,29.3,30.44,North,360,0.0,5.0,68,0.00,,,0.00,Weather View 32 v70,2013-04-15 12:02:00,
2013-04-15 08:08:00,40.0,28.4,30.43,NE,45,3.0,6.0,63,0.00,,,0.00,Weather View 32 v70,2013-04-15 12:08:00,
2013-04-15 08:13:00,40.0,28.4,30.43,NE,45,2.0,6.0,63,0.00,,,0.00,Weather View 32 v70,2013-04-15 12:13:00,
2013-04-15 08:18:00,41.0,28.2,30.42,East,90,2.0,6.0,60,0.00,,,0.00,Weather View 32 v70,2013-04-15 12:18:00,
2013-04-15 08:23:00,41.0,28.2,30.42,ENE,67,3.0,6.0,60,0.00,,,0.00,Weather View 32 v70,2013-04-15 12:23:00,
2013-04-15 08:28:00,41.0,28.2,30.43,NE,45,4.0,6.0,60,0.00,,,0.00,Weather View 32 v70,2013-04-15 12:28:00,
2013-04-15 08:33:00,41.0,28.2,30.43,NE,45,2.0,6.0,60,0.00,,,0.00,Weather View 32 v70,2013-04-15 12:33:00,
2013-04-15 08:38:00,41.0,27.8,30.42,NNE,22,4.0,7.0,59,0.00,,,0.00,Weather View 32 v70,2013-04-15 12:38:00,
2013-04-15 08:43:00,41.0,27.8,30.42,North,360,7.0,7.0,59,0.00,,,0.00,Weather View 32 v70,2013-04-15 12:43:00,
2013-04-15 08:48:00,42.0,28.3,30.44,North,360,6.0,8.0,58,0.00,,,0.00,Weather View 32 v70,2013-04-15 12:48:00,
2013-04-15 08:53:00,42.0,28.7,30.44,ENE,67,2.0,8.0,59,0.00,,,0.00,Weather View 32 v70,2013-04-15 12:53:00,
2013-04-15 08:58:00,42.0,27.9,30.44,ENE,67,4.0,8.0,57,0.00,,,0.00,Weather View 32 v70,2013-04-15 12:58:00,
2013-04-15 09:03:00,43.0,28.8,30.44,NE,45,2.0,8.0,57,0.00,,,0.00,Weather View 32 v70,2013-04-15 13:03:00,
2013-04-15 09:08:00,43.0,29.6,30.44,NW,315,3.0,8.0,59,0.00,,,0.00,Weather View 32 v70,2013-04-15 13:08:00,
2013-04-15 09:13:00,43.0,29.6,30.44,NNW,337,2.0,8.0,59,0.00,,,0.00,Weather View 32 v70,2013-04-15 13:13:00,
2013-04-15 09:18:00,44.0,30.2,30.44,WSW,247,0.0,8.0,58,0.00,,,0.00,Weather View 32 v70,2013-04-15 13:18:00,
2013-04-15 09:23:00,44.0,30.2,30.44,NE,45,3.0,8.0,58,0.00,,,0.00,Weather View 32 v70,2013-04-15 13:23:00,
2013-04-15 09:29:00,44.0,29.7,30.44,North,360,2.0,8.0,57,0.00,,,0.00,Weather View 32 v70,2013-04-15 13:29:00,
2013-04-15 09:34:00,45.0,30.7,30.44,North,360,4.0,8.0,57,0.00,,,0.00,Weather View 32 v70,2013-04-15 13:34:00,
2013-04-15 09:39:00,45.0,31.1,30.44,North,360,0.0,8.0,58,0.00,,,0.00,Weather View 32 v70,2013-04-15 13:39:00,
2013-04-15 09:44:00,46.0,31.6,30.44,North,360,0.0,8.0,57,0.00,,,0.00,Weather View 32 v70,2013-04-15 13:44:00,
2013-04-15 09:49:00,46.0,29.8,30.44,NW,315,1.0,7.0,53,0.00,,,0.00,Weather View 32 v70,2013-04-15 13:49:00,
2013-04-15 09:54:00,47.0,30.7,30.44,ENE,67,4.0,7.0,53,0.00,,,0.00,Weather View 32 v70,2013-04-15 13:54:00,
2013-04-15 09:59:00,46.0,30.3,30.43,East,90,4.0,6.0,54,0.00,,,0.00,Weather View 32 v70,2013-04-15 13:59:00,
2013-04-15 10:04:00,47.0,30.3,30.43,East,90,2.0,7.0,52,0.00,,,0.00,Weather View 32 v70,2013-04-15 14:04:00,
2013-04-15 10:09:00,47.0,30.3,30.43,East,90,1.0,7.0,52,0.00,,,0.00,Weather View 32 v70,2013-04-15 14:09:00,
2013-04-15 10:15:00,48.0,30.7,30.43,SSE,157,0.0,7.0,51,0.00,,,0.00,Weather View 32 v70,2013-04-15 14:15:00,
2013-04-15 10:20:00,49.0,30.1,30.42,ENE,67,5.0,7.0,48,0.00,,,0.00,Weather View 32 v70,2013-04-15 14:20:00,
2013-04-15 10:25:00,47.0,30.3,30.42,ESE,112,3.0,8.0,52,0.00,,,0.00,Weather View 32 v70,2013-04-15 14:25:00,
2013-04-15 10:30:00,47.0,30.7,30.42,NNE,22,2.0,8.0,53,0.00,,,0.00,Weather View 32 v70,2013-04-15 14:30:00,
2013-04-15 10:35:00,47.0,29.3,30.42,ENE,67,4.0,8.0,50,0.00,,,0.00,Weather View 32 v70,2013-04-15 14:35:00,
2013-04-15 10:40:00,48.0,31.2,30.42,SSW,202,1.0,8.0,52,0.00,,,0.00,Weather View 32 v70,2013-04-15 14:40:00,
2013-04-15 10:45:00,48.0,29.7,30.42,SW,225,2.0,8.0,49,0.00,,,0.00,Weather View 32 v70,2013-04-15 14:45:00,
2013-04-15 10:50:00,49.0,30.6,30.42,ENE,67,2.0,8.0,49,0.00,,,0.00,Weather View 32 v70,2013-04-15 14:50:00,
2013-04-15 10:55:00,49.0,30.1,30.42,WNW,292,0.0,8.0,48,0.00,,,0.00,Weather View 32 v70,2013-04-15 14:55:00,
2013-04-15 11:00:00,50.0,31.0,30.40,SW,225,0.0,8.0,48,0.00,,,0.00,Weather View 32 v70,2013-04-15 15:00:00,
2013-04-15 11:05:00,50.0,30.5,30.40,South,180,2.0,8.0,47,0.00,,,0.00,Weather View 32 v70,2013-04-15 15:05:00,
2013-04-15 11:10:00,50.0,29.5,30.40,East,90,1.0,8.0,45,0.00,,,0.00,Weather View 32 v70,2013-04-15 15:10:00,
2013-04-15 11:15:00,50.0,31.0,30.40,SE,135,0.0,8.0,48,0.00,,,0.00,Weather View 32 v70,2013-04-15 15:15:00,
2013-04-15 11:20:00,51.0,29.8,30.40,SE,135,0.0,8.0,44,0.00,,,0.00,Weather View 32 v70,2013-04-15 15:20:00,
2013-04-15 11:25:00,51.0,30.4,30.40,NE,45,3.0,7.0,45,0.00,,,0.00,Weather View 32 v70,2013-04-15 15:25:00,
2013-04-15 11:30:00,51.0,30.9,30.40,SSW,202,5.0,7.0,46,0.00,,,0.00,Weather View 32 v70,2013-04-15 15:30:00,
2013-04-15 11:36:00,51.0,29.8,30.40,SSE,157,1.0,7.0,44,0.00,,,0.00,Weather View 32 v70,2013-04-15 15:36:00,
2013-04-15 11:41:00,52.0,29.0,30.39,SW,225,6.0,7.0,41,0.00,,,0.00,Weather View 32 v70,2013-04-15 15:41:00,
2013-04-15 11:46:00,52.0,29.0,30.39,WSW,247,0.0,7.0,41,0.00,,,0.00,Weather View 32 v70,2013-04-15 15:46:00,
2013-04-15 11:51:00,52.0,30.2,30.39,South,180,1.0,7.0,43,0.00,,,0.00,Weather View 32 v70,2013-04-15 15:51:00,
2013-04-15 11:56:00,52.0,30.2,30.39,SE,135,3.0,7.0,43,0.00,,,0.00,Weather View 32 v70,2013-04-15 15:56:00,
2013-04-15 12:01:00,52.0,30.2,30.38,ESE,112,3.0,7.0,43,0.00,,,0.00,Weather View 32 v70,2013-04-15 16:01:00,
2013-04-15 12:06:00,51.0,28.1,30.38,East,90,5.0,7.0,41,0.00,,,0.00,Weather View 32 v70,2013-04-15 16:06:00,
2013-04-15 12:11:00,52.0,30.2,30.38,SSE,157,2.0,7.0,43,0.00,,,0.00,Weather View 32 v70,2013-04-15 16:11:00,
2013-04-15 12:16:00,52.0,29.0,30.38,SSW,202,0.0,7.0,41,0.00,,,0.00,Weather View 32 v70,2013-04-15 16:16:00,
2013-04-15 12:21:00,53.0,29.9,30.38,West,270,0.0,7.0,41,0.00,,,0.00,Weather View 32 v70,2013-04-15 16:21:00,
2013-04-15 12:26:00,53.0,28.7,30.38,South,180,0.0,7.0,39,0.00,,,0.00,Weather View 32 v70,2013-04-15 16:26:00,
2013-04-15 12:31:00,53.0,29.9,30.38,ENE,67,0.0,7.0,41,0.00,,,0.00,Weather View 32 v70,2013-04-15 16:31:00,
2013-04-15 12:36:00,53.0,28.7,30.38,SW,225,3.0,7.0,39,0.00,,,0.00,Weather View 32 v70,2013-04-15 16:36:00,
2013-04-15 12:42:00,54.0,29.6,30.37,SW,225,2.0,7.0,39,0.00,,,0.00,Weather View 32 v70,2013-04-15 16:42:00,
2013-04-15 12:47:00,55.0,29.8,30.36,SW,225,2.0,9.0,38,0.00,,,0.00,Weather View 32 v70,2013-04-15 16:47:00,
2013-04-15 12:52:00,55.0,29.2,30.36,SW,225,6.0,9.0,37,0.00,,,0.00,Weather View 32 v70,2013-04-15 16:52:00,
2013-04-15 12:57:00,54.0,28.3,30.36,South,180,2.0,9.0,37,0.00,,,0.00,Weather View 32 v70,2013-04-15 16:57:00,
2013-04-15 13:02:00,55.0,28.5,30.36,SW,225,1.0,9.0,36,0.00,,,0.00,Weather View 32 v70,2013-04-15 17:02:00,
2013-04-15 13:07:00,55.0,28.5,30.35,South,180,3.0,9.0,36,0.00,,,0.00,Weather View 32 v70,2013-04-15 17:07:00,
2013-04-15 13:12:00,55.0,31.7,30.35,NE,45,6.0,9.0,41,0.00,,,0.00,Weather View 32 v70,2013-04-15 17:12:00,
2013-04-15 13:17:00,55.0,29.2,30.35,South,180,4.0,9.0,37,0.00,,,0.00,Weather View 32 v70,2013-04-15 17:17:00,
2013-04-15 13:21:00,55.0,28.5,30.35,WSW,247,0.0,9.0,36,0.00,,,0.00,Weather View 32 v70,2013-04-15 17:21:00,
2013-04-15 13:22:00,55.0,29.2,30.35,South,180,0.0,9.0,37,0.00,,,0.00,Weather View 32 v70,2013-04-15 17:22:00,
2013-04-15 13:25:00,56.0,30.0,30.35,SE,135,1.0,9.0,37,0.00,,,0.00,Weather View 32 v70,2013-04-15 17:25:00,
2013-04-15 13:30:00,56.0,28.7,30.34,SW,225,0.0,9.0,35,0.00,,,0.00,Weather View 32 v70,2013-04-15 17:30:00,
2013-04-15 13:35:00,57.0,29.6,30.34,SSW,202,6.0,9.0,35,0.00,,,0.00,Weather View 32 v70,2013-04-15 17:35:00,
2013-04-15 13:40:00,55.0,28.5,30.34,SE,135,7.0,9.0,36,0.00,,,0.00,Weather View 32 v70,2013-04-15 17:40:00,
2013-04-15 13:45:00,56.0,29.4,30.34,SE,135,5.0,9.0,36,0.00,,,0.00,Weather View 32 v70,2013-04-15 17:45:00,
2013-04-15 13:50:00,57.0,29.6,30.34,South,180,1.0,7.0,35,0.00,,,0.00,Weather View 32 v70,2013-04-15 17:50:00,
2013-04-15 13:55:00,58.0,29.7,30.34,SW,225,1.0,7.0,34,0.00,,,0.00,Weather View 32 v70,2013-04-15 17:55:00,
2013-04-15 14:00:00,59.0,32.0,30.32,SSE,157,5.0,7.0,36,0.00,,,0.00,Weather View 32 v70,2013-04-15 18:00:00,
2013-04-15 14:05:00,59.0,29.9,30.32,South,180,4.0,7.0,33,0.00,,,0.00,Weather View 32 v70,2013-04-15 18:05:00,
2013-04-15 14:10:00,59.0,29.9,30.32,South,180,3.0,7.0,33,0.00,,,0.00,Weather View 32 v70,2013-04-15 18:10:00,
2013-04-15 14:15:00,58.0,29.7,30.32,SSE,157,5.0,7.0,34,0.00,,,0.00,Weather View 32 v70,2013-04-15 18:15:00,
2013-04-15 14:20:00,58.0,29.7,30.32,South,180,6.0,7.0,34,0.00,,,0.00,Weather View 32 v70,2013-04-15 18:20:00,
2013-04-15 14:26:00,58.0,30.4,30.32,WSW,247,0.0,9.0,35,0.00,,,0.00,Weather View 32 v70,2013-04-15 18:26:00,
2013-04-15 14:29:00,58.0,33.1,30.32,NW,315,2.0,9.0,39,0.00,,,0.00,Weather View 32 v70,2013-04-15 18:29:00,
2013-04-15 14:34:00,59.0,30.6,30.32,South,180,3.0,9.0,34,0.00,,,0.00,Weather View 32 v70,2013-04-15 18:34:00,
2013-04-15 14:39:00,60.0,30.8,30.31,SSE,157,6.0,9.0,33,0.00,,,0.00,Weather View 32 v70,2013-04-15 18:39:00,
2013-04-15 14:44:00,60.0,30.0,30.31,SSE,157,6.0,9.0,32,0.00,,,0.00,Weather View 32 v70,2013-04-15 18:44:00,
2013-04-15 14:49:00,59.0,29.9,30.30,SE,135,6.0,9.0,33,0.00,,,0.00,Weather View 32 v70,2013-04-15 18:49:00,
2013-04-15 14:54:00,56.0,29.4,30.30,ESE,112,6.0,10.0,36,0.00,,,0.00,Weather View 32 v70,2013-04-15 18:54:00,
2013-04-15 14:59:00,59.0,29.9,30.31,SSW,202,4.0,10.0,33,0.00,,,0.00,Weather View 32 v70,2013-04-15 18:59:00,
2013-04-15 15:04:00,60.0,30.8,30.31,South,180,4.0,10.0,33,0.00,,,0.00,Weather View 32 v70,2013-04-15 19:04:00,
2013-04-15 15:09:00,61.0,33.1,30.29,SSW,202,4.0,10.0,35,0.00,,,0.00,Weather View 32 v70,2013-04-15 19:09:00,
2013-04-15 15:14:00,62.0,31.7,30.29,South,180,4.0,10.0,32,0.00,,,0.00,Weather View 32 v70,2013-04-15 19:14:00,
2013-04-15 15:19:00,62.0,32.5,30.28,West,270,1.0,10.0,33,0.00,,,0.00,Weather View 32 v70,2013-04-15 19:19:00,
2013-04-15 15:24:00,62.0,31.0,30.28,SSW,202,6.0,10.0,31,0.00,,,0.00,Weather View 32 v70,2013-04-15 19:24:00,
2013-04-15 15:29:00,62.0,31.0,30.28,South,180,6.0,10.0,31,0.00,,,0.00,Weather View 32 v70,2013-04-15 19:29:00,
2013-04-15 15:34:00,62.0,31.7,30.28,SW,225,2.0,10.0,32,0.00,,,0.00,Weather View 32 v70,2013-04-15 19:34:00,
2013-04-15 15:39:00,63.0,31.8,30.27,South,180,1.0,10.0,31,0.00,,,0.00,Weather View 32 v70,2013-04-15 19:39:00,
2013-04-15 15:45:00,63.0,31.8,30.27,SSW,202,3.0,10.0,31,0.00,,,0.00,Weather View 32 v70,2013-04-15 19:45:00,
2013-04-15 15:50:00,62.0,31.7,30.27,SE,135,0.0,10.0,32,0.00,,,0.00,Weather View 32 v70,2013-04-15 19:50:00,
2013-04-15 15:58:00,63.0,31.8,30.27,WSW,247,6.0,9.0,31,0.00,,,0.00,Weather View 32 v70,2013-04-15 19:58:00,
2013-04-15 15:59:00,63.0,31.8,30.27,SSW,202,4.0,9.0,31,0.00,,,0.00,Weather View 32 v70,2013-04-15 19:59:00,
2013-04-15 16:02:00,63.0,31.8,30.27,WSW,247,5.0,9.0,31,0.00,,,0.00,Weather View 32 v70,2013-04-15 20:02:00,
2013-04-15 16:03:00,63.0,31.0,30.27,SW,225,4.0,9.0,30,0.00,,,0.00,Weather View 32 v70,2013-04-15 20:03:00,
2013-04-15 16:08:00,64.0,32.7,30.26,South,180,5.0,9.0,31,0.00,,,0.00,Weather View 32 v70,2013-04-15 20:08:00,
2013-04-15 16:13:00,63.0,31.8,30.26,SSW,202,7.0,9.0,31,0.00,,,0.00,Weather View 32 v70,2013-04-15 20:13:00,
2013-04-15 16:18:00,63.0,31.8,30.27,SW,225,1.0,9.0,31,0.00,,,0.00,Weather View 32 v70,2013-04-15 20:18:00,
2013-04-15 16:23:00,63.0,31.0,30.27,SSW,202,5.0,9.0,30,0.00,,,0.00,Weather View 32 v70,2013-04-15 20:23:00,
2013-04-15 16:28:00,63.0,31.8,30.27,SW,225,3.0,9.0,31,0.00,,,0.00,Weather View 32 v70,2013-04-15 20:28:00,
2013-04-15 16:33:00,63.0,31.0,30.27,SW,225,7.0,9.0,30,0.00,,,0.00,Weather View 32 v70,2013-04-15 20:33:00,
2013-04-15 16:38:00,63.0,31.0,30.27,SSW,202,3.0,9.0,30,0.00,,,0.00,Weather View 32 v70,2013-04-15 20:38:00,
2013-04-15 16:43:00,63.0,31.8,30.27,SW,225,5.0,9.0,31,0.00,,,0.00,Weather View 32 v70,2013-04-15 20:43:00,
2013-04-15 16:48:00,63.0,31.8,30.26,SSW,202,5.0,9.0,31,0.00,,,0.00,Weather View 32 v70,2013-04-15 20:48:00,
2013-04-15 16:53:00,62.0,30.1,30.26,South,180,7.0,9.0,30,0.00,,,0.00,Weather View 32 v70,2013-04-15 20:53:00,
2013-04-15 16:58:00,62.0,30.1,30.27,SW,225,6.0,9.0,30,0.00,,,0.00,Weather View 32 v70,2013-04-15 20:58:00,
2013-04-15 17:03:00,62.0,31.0,30.27,South,180,1.0,9.0,31,0.00,,,0.00,Weather View 32 v70,2013-04-15 21:03:00,
2013-04-15 17:08:00,62.0,29.3,30.27,South,180,9.0,9.0,29,0.00,,,0.00,Weather View 32 v70,2013-04-15 21:08:00,
2013-04-15 17:13:00,61.0,29.3,30.27,South,180,7.0,10.0,30,0.00,,,0.00,Weather View 32 v70,2013-04-15 21:13:00,
2013-04-15 17:18:00,61.0,30.1,30.27,SSW,202,8.0,10.0,31,0.00,,,0.00,Weather View 32 v70,2013-04-15 21:18:00,
2013-04-15 17:23:00,61.0,30.1,30.27,SSW,202,6.0,10.0,31,0.00,,,0.00,Weather View 32 v70,2013-04-15 21:23:00,
2013-04-15 17:28:00,61.0,30.1,30.28,SSW,202,4.0,10.0,31,0.00,,,0.00,Weather View 32 v70,2013-04-15 21:28:00,
2013-04-15 17:33:00,61.0,30.9,30.28,South,180,4.0,10.0,32,0.00,,,0.00,Weather View 32 v70,2013-04-15 21:33:00,
2013-04-15 17:38:00,60.0,29.2,30.29,SW,225,6.0,10.0,31,0.00,,,0.00,Weather View 32 v70,2013-04-15 21:38:00,
2013-04-15 17:43:00,60.0,30.8,30.29,SSW,202,6.0,10.0,33,0.00,,,0.00,Weather View 32 v70,2013-04-15 21:43:00,
2013-04-15 17:48:00,60.0,30.8,30.30,SSW,202,7.0,10.0,33,0.00,,,0.00,Weather View 32 v70,2013-04-15 21:48:00,
2013-04-15 17:53:00,60.0,30.8,30.30,SSW,202,5.0,10.0,33,0.00,,,0.00,Weather View 32 v70,2013-04-15 21:53:00,
2013-04-15 17:58:00,59.0,29.9,30.30,SSW,202,7.0,10.0,33,0.00,,,0.00,Weather View 32 v70,2013-04-15 21:58:00,
2013-04-15 18:03:00,59.0,30.6,30.30,SW,225,4.0,10.0,34,0.00,,,0.00,Weather View 32 v70,2013-04-15 22:03:00,
2013-04-15 18:08:00,59.0,30.6,30.32,SSW,202,7.0,10.0,34,0.00,,,0.00,Weather View 32 v70,2013-04-15 22:08:00,
2013-04-15 18:13:00,58.0,29.7,30.32,SW,225,6.0,9.0,34,0.00,,,0.00,Weather View 32 v70,2013-04-15 22:13:00,
2013-04-15 18:18:00,58.0,30.4,30.33,SW,225,5.0,9.0,35,0.00,,,0.00,Weather View 32 v70,2013-04-15 22:18:00,
2013-04-15 18:23:00,57.0,30.3,30.33,SW,225,5.0,9.0,36,0.00,,,0.00,Weather View 32 v70,2013-04-15 22:23:00,
2013-04-15 18:28:00,56.0,30.0,30.34,SW,225,4.0,9.0,37,0.00,,,0.00,Weather View 32 v70,2013-04-15 22:28:00,
2013-04-15 18:33:00,55.0,28.5,30.34,SSW,202,6.0,9.0,36,0.00,,,0.00,Weather View 32 v70,2013-04-15 22:33:00,
2013-04-15 18:38:00,55.0,28.5,30.34,SW,225,6.0,9.0,36,0.00,,,0.00,Weather View 32 v70,2013-04-15 22:38:00,
2013-04-15 18:43:00,55.0,28.5,30.34,SW,225,4.0,9.0,36,0.00,,,0.00,Weather View 32 v70,2013-04-15 22:43:00,
2013-04-15 18:48:00,55.0,28.5,30.35,SSW,202,4.0,9.0,36,0.00,,,0.00,Weather View 32 v70,2013-04-15 22:48:00,
2013-04-15 18:53:00,55.0,29.2,30.35,South,180,3.0,9.0,37,0.00,,,0.00,Weather View 32 v70,2013-04-15 22:53:00,
2013-04-15 18:58:00,55.0,29.8,30.34,South,180,4.0,9.0,38,0.00,,,0.00,Weather View 32 v70,2013-04-15 22:58:00,
2013-04-15 19:03:00,55.0,29.8,30.34,South,180,4.0,9.0,38,0.00,,,0.00,Weather View 32 v70,2013-04-15 23:03:00,
2013-04-15 19:08:00,54.0,28.9,30.34,SSW,202,4.0,9.0,38,0.00,,,0.00,Weather View 32 v70,2013-04-15 23:08:00,
2013-04-15 19:13:00,54.0,29.6,30.34,SSW,202,4.0,8.0,39,0.00,,,0.00,Weather View 32 v70,2013-04-15 23:13:00,
2013-04-15 19:18:00,54.0,30.8,30.36,South,180,4.0,8.0,41,0.00,,,0.00,Weather View 32 v70,2013-04-15 23:18:00,
2013-04-15 19:23:00,53.0,30.5,30.36,South,180,4.0,8.0,42,0.00,,,0.00,Weather View 32 v70,2013-04-15 23:23:00,
2013-04-15 19:30:00,52.0,30.2,30.36,South,180,3.0,8.0,43,0.00,,,0.00,Weather View 32 v70,2013-04-15 23:30:00,
2013-04-15 19:35:00,52.0,31.3,30.36,South,180,4.0,7.0,45,0.00,,,0.00,Weather View 32 v70,2013-04-15 23:35:00,
2013-04-15 19:40:00,52.0,31.8,30.36,South,180,1.0,7.0,46,0.00,,,0.00,Weather View 32 v70,2013-04-15 23:40:00,
2013-04-15 19:45:00,51.0,31.4,30.36,South,180,3.0,6.0,47,0.00,,,0.00,Weather View 32 v70,2013-04-15 23:45:00,
2013-04-15 19:50:00,51.0,31.4,30.36,South,180,2.0,6.0,47,0.00,,,0.00,Weather View 32 v70,2013-04-15 23:50:00,
2013-04-15 19:55:00,50.0,31.0,30.36,South,180,2.0,6.0,48,0.00,,,0.00,Weather View 32 v70,2013-04-15 23:55:00,
2013-04-15 20:00:00,50.0,31.6,30.37,South,180,3.0,6.0,49,0.00,,,0.00,Weather View 32 v70,2013-04-16 00:00:00,
2013-04-15 20:05:00,50.0,31.6,30.37,South,180,2.0,6.0,49,0.00,,,0.00,Weather View 32 v70,2013-04-16 00:05:00,
2013-04-15 20:10:00,50.0,32.1,30.38,SSW,202,3.0,6.0,50,0.00,,,0.00,Weather View 32 v70,2013-04-16 00:10:00,
2013-04-15 20:15:00,49.0,31.1,30.38,SSW,202,4.0,6.0,50,0.00,,,0.00,Weather View 32 v70,2013-04-16 00:15:00,
2013-04-15 20:20:00,49.0,31.1,30.39,SSW,202,2.0,7.0,50,0.00,,,0.00,Weather View 32 v70,2013-04-16 00:20:00,
2013-04-15 20:25:00,49.0,31.1,30.39,SSW,202,4.0,7.0,50,0.00,,,0.00,Weather View 32 v70,2013-04-16 00:25:00,
2013-04-15 20:30:00,49.0,31.6,30.40,South,180,3.0,8.0,51,0.00,,,0.00,Weather View 32 v70,2013-04-16 00:30:00,
2013-04-15 20:35:00,49.0,31.6,30.40,South,180,1.0,8.0,51,0.00,,,0.00,Weather View 32 v70,2013-04-16 00:35:00,
2013-04-15 20:40:00,48.0,31.2,30.40,South,180,2.0,8.0,52,0.00,,,0.00,Weather View 32 v70,2013-04-16 00:40:00,
2013-04-15 20:45:00,48.0,31.7,30.40,SSW,202,3.0,8.0,53,0.00,,,0.00,Weather View 32 v70,2013-04-16 00:45:00,
2013-04-15 20:50:00,48.0,31.7,30.41,SSW,202,3.0,8.0,53,0.00,,,0.00,Weather View 32 v70,2013-04-16 00:50:00,
2013-04-15 20:55:00,48.0,32.6,30.41,SSW,202,3.0,8.0,55,0.00,,,0.00,Weather View 32 v70,2013-04-16 00:55:00,
2013-04-15 21:00:00,48.0,32.6,30.40,SSW,202,3.0,8.0,55,0.00,,,0.00,Weather View 32 v70,2013-04-16 01:00:00,
2013-04-15 21:05:00,47.0,32.1,30.40,SSW,202,3.0,8.0,56,0.00,,,0.00,Weather View 32 v70,2013-04-16 01:05:00,
2013-04-15 21:10:00,47.0,32.5,30.42,South,180,2.0,8.0,57,0.00,,,0.00,Weather View 32 v70,2013-04-16 01:10:00,
2013-04-15 21:15:00,47.0,33.0,30.42,South,180,2.0,8.0,58,0.00,,,0.00,Weather View 32 v70,2013-04-16 01:15:00,
2013-04-15 21:20:00,47.0,33.8,30.42,South,180,3.0,8.0,60,0.00,,,0.00,Weather View 32 v70,2013-04-16 01:20:00,
2013-04-15 21:25:00,46.0,33.3,30.42,South,180,3.0,8.0,61,0.00,,,0.00,Weather View 32 v70,2013-04-16 01:25:00,
2013-04-15 21:30:00,46.0,33.3,30.42,South,180,3.0,5.0,61,0.00,,,0.00,Weather View 32 v70,2013-04-16 01:30:00,
2013-04-15 21:35:00,46.0,34.1,30.42,South,180,3.0,6.0,63,0.00,,,0.00,Weather View 32 v70,2013-04-16 01:35:00,
2013-04-15 21:40:00,46.0,34.5,30.43,SSW,202,3.0,6.0,64,0.00,,,0.00,Weather View 32 v70,2013-04-16 01:40:00,
2013-04-15 21:45:00,46.0,34.9,30.43,SSW,202,1.0,6.0,65,0.00,,,0.00,Weather View 32 v70,2013-04-16 01:45:00,
2013-04-15 21:50:00,46.0,35.3,30.42,SSW,202,3.0,6.0,66,0.00,,,0.00,Weather View 32 v70,2013-04-16 01:50:00,
2013-04-15 21:55:00,46.0,35.3,30.42,South,180,3.0,6.0,66,0.00,,,0.00,Weather View 32 v70,2013-04-16 01:55:00,
2013-04-15 22:00:00,45.0,34.3,30.43,SSW,202,4.0,6.0,66,0.00,,,0.00,Weather View 32 v70,2013-04-16 02:00:00,
2013-04-15 22:05:00,45.0,34.7,30.43,SSW,202,3.0,6.0,67,0.00,,,0.00,Weather View 32 v70,2013-04-16 02:05:00,
2013-04-15 22:10:00,45.0,34.7,30.43,SSW,202,3.0,6.0,67,0.00,,,0.00,Weather View 32 v70,2013-04-16 02:10:00,
2013-04-15 22:15:00,45.0,34.7,30.43,SSW,202,2.0,6.0,67,0.00,,,0.00,Weather View 32 v70,2013-04-16 02:15:00,
2013-04-15 22:20:00,45.0,35.1,30.43,South,180,3.0,6.0,68,0.00,,,0.00,Weather View 32 v70,2013-04-16 02:20:00,
2013-04-15 22:25:00,45.0,35.1,30.43,SSW,202,3.0,6.0,68,0.00,,,0.00,Weather View 32 v70,2013-04-16 02:25:00,
2013-04-15 22:30:00,45.0,35.4,30.44,SSW,202,1.0,6.0,69,0.00,,,0.00,Weather View 32 v70,2013-04-16 02:30:00,
2013-04-15 22:35:00,45.0,35.4,30.44,SSW,202,2.0,6.0,69,0.00,,,0.00,Weather View 32 v70,2013-04-16 02:35:00,
2013-04-15 22:40:00,45.0,36.9,30.44,SSW,202,0.0,6.0,73,0.00,,,0.00,Weather View 32 v70,2013-04-16 02:40:00,
2013-04-15 22:45:00,45.0,35.8,30.44,South,180,2.0,6.0,70,0.00,,,0.00,Weather View 32 v70,2013-04-16 02:45:00,
2013-04-15 22:50:00,44.0,34.8,30.44,South,180,2.0,6.0,70,0.00,,,0.00,Weather View 32 v70,2013-04-16 02:50:00,
2013-04-15 22:55:00,44.0,35.2,30.44,South,180,1.0,6.0,71,0.00,,,0.00,Weather View 32 v70,2013-04-16 02:55:00,
2013-04-15 23:00:00,44.0,35.2,30.44,South,180,2.0,5.0,71,0.00,,,0.00,Weather View 32 v70,2013-04-16 03:00:00,
2013-04-15 23:05:00,44.0,35.2,30.44,South,180,2.0,5.0,71,0.00,,,0.00,Weather View 32 v70,2013-04-16 03:05:00,
2013-04-15 23:10:00,44.0,35.5,30.45,South,180,2.0,5.0,72,0.00,,,0.00,Weather View 32 v70,2013-04-16 03:10:00,
2013-04-15 23:15:00,43.0,34.9,30.45,South,180,1.0,5.0,73,0.00,,,0.00,Weather View 32 v70,2013-04-16 03:15:00,
2013-04-15 23:20:00,43.0,34.6,30.45,South,180,2.0,5.0,72,0.00,,,0.00,Weather View 32 v70,2013-04-16 03:20:00,
2013-04-15 23:25:00,43.0,34.2,30.45,South,180,0.0,5.0,71,0.00,,,0.00,Weather View 32 v70,2013-04-16 03:25:00,
2013-04-15 23:30:00,43.0,34.6,30.45,South,180,0.0,4.0,72,0.00,,,0.00,Weather View 32 v70,2013-04-16 03:30:00,
2013-04-15 23:35:00,44.0,35.5,30.45,South,180,0.0,3.0,72,0.00,,,0.00,Weather View 32 v70,2013-04-16 03:35:00,
2013-04-15 23:40:00,43.0,34.6,30.45,South,180,0.0,3.0,72,0.00,,,0.00,Weather View 32 v70,2013-04-16 03:40:00,
2013-04-15 23:45:00,43.0,34.6,30.45,South,180,2.0,3.0,72,0.00,,,0.00,Weather View 32 v70,2013-04-16 03:45:00,
2013-04-15 23:50:00,43.0,34.9,30.46,South,180,2.0,3.0,73,0.00,,,0.00,Weather View 32 v70,2013-04-16 03:50:00,
2013-04-15 23:55:00,43.0,34.9,30.46,South,180,2.0,3.0,73,0.00,,,0.00,Weather View 32 v70,2013-04-16 03:55:00,